Amboy, West Virginia
Current Conditions -  °F | °C
As of 12:45 PM on Monday 24 Nov 2014 (Local Time) from K2G4 Reporting Station
Scattered Clouds Scattered Clouds  
Wind Chill: 63°   Ceiling: Unl
Heat Index: 63°   Visibility: 10mi
Dew Point: 30°   Wind: 24mph
Humidity: 30%   Direction: 220°SW
Pressure: 29.54"   Gusts: 35mph
Location:  39.2915°N, 79.5765°W
Report Text: K2G4 241745Z AUTO 22021G30KT 10SM SCT060 17/M01 A2954 RMK AO1
Loading
Personal Weather Stations






























Interactive Weather Map New forecast layout! Learn more

10-Day Weather Forecast

Advertisements
Track Severe Weather on mobile